createdAt,value
2023-03-29T00:00:14.404Z,9.02
2023-03-29T00:02:41.885Z,11.00
2023-03-29T00:05:11.314Z,9.15
2023-03-29T00:07:38.455Z,8.88
2023-03-29T00:10:06.171Z,9.90
2023-03-29T00:12:36.214Z,11.52
2023-03-29T00:15:03.385Z,10.13
2023-03-29T00:17:30.803Z,8.02
2023-03-29T00:20:00.222Z,11.35
2023-03-29T00:22:27.260Z,11.25
2023-03-29T00:24:54.428Z,9.27
2023-03-29T00:27:21.884Z,10.32
2023-03-29T00:29:50.374Z,12.98
2023-03-29T00:32:17.447Z,8.85
2023-03-29T00:34:50.918Z,9.80
2023-03-29T00:37:18.973Z,10.43
2023-03-29T00:39:48.432Z,13.18
2023-03-29T00:42:16.551Z,11.13
2023-03-29T00:44:58.376Z,10.07
2023-03-29T00:47:27.596Z,12.15
2023-03-29T00:49:55.636Z,11.83
2023-03-29T00:52:30.382Z,11.57
2023-03-29T00:54:58.830Z,16.52
2023-03-29T00:57:30.155Z,12.82
2023-03-29T01:00:02.035Z,11.20
2023-03-29T01:02:35.031Z,9.70
2023-03-29T01:05:05.803Z,9.45
2023-03-29T01:07:35.454Z,9.88
2023-03-29T01:10:06.533Z,9.57
2023-03-29T01:12:36.257Z,10.05
2023-03-29T01:15:06.052Z,9.23
2023-03-29T01:17:33.369Z,9.95
2023-03-29T01:20:07.998Z,11.40
2023-03-29T01:22:42.765Z,9.00
2023-03-29T01:25:11.493Z,8.43
2023-03-29T01:27:51.917Z,8.23
2023-03-29T01:30:21.464Z,10.27
2023-03-29T01:32:57.203Z,9.00
2023-03-29T01:35:27.439Z,9.00
2023-03-29T01:37:59.204Z,9.48
2023-03-29T01:40:29.157Z,6.85
2023-03-29T01:43:01.164Z,8.93
2023-03-29T01:45:31.687Z,7.47
2023-03-29T01:48:01.223Z,7.13
2023-03-29T01:50:32.819Z,8.13
2023-03-29T01:53:02.880Z,6.35
2023-03-29T01:55:32.377Z,6.05
2023-03-29T01:58:02.119Z,5.95
2023-03-29T02:00:29.812Z,7.20
2023-03-29T02:03:00.444Z,7.13
2023-03-29T02:05:29.075Z,7.10
2023-03-29T02:07:57.908Z,6.53
2023-03-29T02:10:25.801Z,6.20
2023-03-29T02:12:53.226Z,7.15
2023-03-29T02:15:21.914Z,5.20
2023-03-29T02:17:49.513Z,6.72
2023-03-29T02:20:22.767Z,7.22
2023-03-29T02:22:54.774Z,7.22
2023-03-29T02:25:22.739Z,8.35
2023-03-29T02:27:49.938Z,8.38
2023-03-29T02:30:18.202Z,8.73
2023-03-29T02:32:51.464Z,7.22
2023-03-29T02:35:22.167Z,8.02
2023-03-29T02:37:51.422Z,7.47
2023-03-29T02:40:21.054Z,9.98
2023-03-29T02:42:51.944Z,6.88
2023-03-29T02:45:19.538Z,5.82
2023-03-29T02:47:49.264Z,7.57
2023-03-29T02:50:18.311Z,7.78
2023-03-29T02:52:52.412Z,9.53
2023-03-29T02:55:21.675Z,6.28
2023-03-29T02:57:48.993Z,7.28
2023-03-29T03:00:19.047Z,7.10
2023-03-29T03:02:47.248Z,6.18
2023-03-29T03:05:17.668Z,6.33
2023-03-29T03:07:44.607Z,7.43
2023-03-29T03:10:12.707Z,6.00
2023-03-29T03:12:39.826Z,7.43
2023-03-29T03:15:07.814Z,6.70
2023-03-29T03:17:40.066Z,6.32
2023-03-29T03:20:10.852Z,5.80
2023-03-29T03:22:39.702Z,9.02
2023-03-29T03:25:07.162Z,7.63
2023-03-29T03:27:34.484Z,8.38
2023-03-29T03:30:01.579Z,8.57
2023-03-29T03:32:28.867Z,8.88
2023-03-29T03:34:56.210Z,8.35
2023-03-29T03:37:23.729Z,9.27
2023-03-29T03:39:52.246Z,9.70
2023-03-29T03:42:19.299Z,10.85
2023-03-29T03:44:46.670Z,12.10
2023-03-29T03:47:16.444Z,11.00
2023-03-29T03:49:44.014Z,8.63
2023-03-29T03:52:12.499Z,7.80
2023-03-29T03:54:39.707Z,9.05
2023-03-29T03:57:08.135Z,6.88
2023-03-29T03:59:35.577Z,6.93
2023-03-29T04:02:03.691Z,7.85
2023-03-29T04:04:31.537Z,7.60
2023-03-29T04:07:03.729Z,8.00
2023-03-29T04:09:31.595Z,7.13
2023-03-29T04:11:59.334Z,7.15
2023-03-29T04:14:28.332Z,7.07
2023-03-29T04:16:55.843Z,7.15
2023-03-29T04:19:23.193Z,7.55
2023-03-29T04:21:51.800Z,6.85
2023-03-29T04:24:19.757Z,6.55
2023-03-29T04:26:48.893Z,7.38
2023-03-29T04:29:16.044Z,6.68
2023-03-29T04:31:44.501Z,7.38
2023-03-29T04:34:11.731Z,6.45
2023-03-29T04:36:39.097Z,6.70
2023-03-29T04:39:07.954Z,7.05
2023-03-29T04:41:36.011Z,7.22
2023-03-29T04:44:03.021Z,8.77
2023-03-29T04:46:30.708Z,9.15
2023-03-29T04:48:59.838Z,8.63
2023-03-29T04:51:27.802Z,9.70
2023-03-29T04:53:54.824Z,8.85
2023-03-29T04:56:24.041Z,9.57
2023-03-29T04:58:51.443Z,11.55
2023-03-29T05:01:18.474Z,8.82
2023-03-29T05:03:45.672Z,9.43
2023-03-29T05:06:14.146Z,10.15
2023-03-29T05:08:41.537Z,9.30
2023-03-29T05:11:09.274Z,9.57
2023-03-29T05:13:37.051Z,9.68
2023-03-29T05:16:05.431Z,9.27
2023-03-29T05:18:32.970Z,6.93
2023-03-29T05:21:00.401Z,8.85
2023-03-29T05:23:29.478Z,8.77
2023-03-29T05:25:58.823Z,9.10
2023-03-29T05:28:27.273Z,10.20
2023-03-29T05:31:01.737Z,9.32
2023-03-29T05:33:29.876Z,10.48
2023-03-29T05:36:00.729Z,12.33
2023-03-29T05:38:30.473Z,16.05
2023-03-29T05:40:57.853Z,13.85
2023-03-29T05:43:25.123Z,14.80
2023-03-29T05:45:53.197Z,15.18
2023-03-29T05:48:20.548Z,13.65
2023-03-29T05:50:54.032Z,12.60
2023-03-29T05:53:22.147Z,10.95
2023-03-29T05:55:52.322Z,10.13
2023-03-29T05:58:21.232Z,14.90
2023-03-29T06:00:51.967Z,13.17
2023-03-29T06:03:21.106Z,12.38
2023-03-29T06:05:50.007Z,11.65
2023-03-29T06:08:17.325Z,13.25
2023-03-29T06:10:44.764Z,13.07
2023-03-29T06:13:13.461Z,13.80
2023-03-29T06:15:40.425Z,14.75
2023-03-29T06:18:08.279Z,10.35
2023-03-29T06:20:35.478Z,7.10
2023-03-29T06:23:02.756Z,8.23
2023-03-29T06:25:30.164Z,39.80
2023-03-29T06:27:59.410Z,52.60
2023-03-29T06:30:28.920Z,30.15
2023-03-29T06:32:58.021Z,29.60
2023-03-29T06:35:26.533Z,25.58
2023-03-29T06:37:56.166Z,18.53
2023-03-29T06:40:23.219Z,18.92
2023-03-29T06:42:58.145Z,18.88
2023-03-29T06:45:27.494Z,20.30
2023-03-29T06:47:59.919Z,20.65
2023-03-29T06:50:27.290Z,21.67
2023-03-29T06:52:54.534Z,20.67
2023-03-29T06:55:22.891Z,19.65
2023-03-29T06:57:50.586Z,22.60
2023-03-29T07:00:19.355Z,23.08
2023-03-29T07:02:46.648Z,18.73
2023-03-29T07:05:17.139Z,22.67
2023-03-29T07:07:57.193Z,25.73
2023-03-29T07:10:32.385Z,25.27
2023-03-29T07:13:00.966Z,20.65
2023-03-29T07:15:29.488Z,21.77
2023-03-29T07:17:57.670Z,20.10
2023-03-29T07:20:29.527Z,17.95
2023-03-29T07:22:57.563Z,14.20
2023-03-29T07:25:25.249Z,13.35
2023-03-29T07:27:52.337Z,15.40
2023-03-29T07:30:32.046Z,11.23
2023-03-29T07:33:00.660Z,11.63
2023-03-29T07:35:30.939Z,15.57
2023-03-29T07:37:58.633Z,10.60
2023-03-29T07:40:26.431Z,16.23
2023-03-29T07:42:55.192Z,14.88
2023-03-29T07:45:26.676Z,15.98
2023-03-29T07:47:56.508Z,12.60
2023-03-29T07:50:23.966Z,12.40
2023-03-29T07:52:52.797Z,11.67
2023-03-29T07:55:20.690Z,12.07
2023-03-29T07:57:48.874Z,15.32
2023-03-29T08:00:16.963Z,15.02
2023-03-29T08:02:44.929Z,15.35
2023-03-29T08:05:19.013Z,19.27
2023-03-29T08:07:50.924Z,18.77
2023-03-29T08:10:20.681Z,12.25
2023-03-29T08:12:48.677Z,10.45
2023-03-29T08:15:16.603Z,8.98
2023-03-29T08:17:44.065Z,10.33
2023-03-29T08:20:13.213Z,12.73
2023-03-29T08:22:40.730Z,10.27
2023-03-29T08:25:08.128Z,9.07
2023-03-29T08:27:37.828Z,8.15
2023-03-29T08:30:05.323Z,8.67
2023-03-29T08:32:32.915Z,8.90
2023-03-29T08:35:01.844Z,8.52
2023-03-29T08:37:31.320Z,8.60
2023-03-29T08:40:11.214Z,8.88
2023-03-29T08:42:53.751Z,9.67
2023-03-29T08:45:25.678Z,7.45
2023-03-29T08:47:56.557Z,7.50
2023-03-29T08:50:32.874Z,8.80
2023-03-29T08:53:01.132Z,7.80
2023-03-29T08:55:31.935Z,8.73
2023-03-29T08:58:02.632Z,8.77
2023-03-29T09:00:33.585Z,8.80
2023-03-29T09:03:02.782Z,7.50
2023-03-29T09:05:34.502Z,7.75
2023-03-29T09:08:09.530Z,7.57
2023-03-29T09:10:42.590Z,10.13
2023-03-29T09:13:17.066Z,8.75
2023-03-29T09:15:49.553Z,8.05
2023-03-29T09:18:24.932Z,9.10
2023-03-29T09:20:57.141Z,9.17
2023-03-29T09:23:31.383Z,10.48
2023-03-29T09:26:00.316Z,8.02
2023-03-29T09:28:34.830Z,7.40
2023-03-29T09:31:06.473Z,8.82
2023-03-29T09:34:25.316Z,7.33
2023-03-29T09:36:53.712Z,8.93
2023-03-29T09:39:22.285Z,7.80
2023-03-29T09:41:51.831Z,8.48
2023-03-29T09:44:30.878Z,8.38
2023-03-29T09:47:02.937Z,7.50
2023-03-29T09:50:30.972Z,8.43
2023-03-29T09:56:44.523Z,6.88
2023-03-29T09:59:11.897Z,8.50
2023-03-29T10:01:41.956Z,7.00
2023-03-29T10:04:19.163Z,9.85
2023-03-29T10:06:55.578Z,7.15
2023-03-29T10:09:24.303Z,8.13
2023-03-29T10:11:52.576Z,8.20
2023-03-29T10:14:21.716Z,5.77
2023-03-29T10:16:57.958Z,7.30
2023-03-29T10:19:27.807Z,8.38
2023-03-29T10:21:55.772Z,7.55
2023-03-29T10:24:23.764Z,7.55
2023-03-29T10:26:56.071Z,8.53
2023-03-29T10:29:26.004Z,7.72
2023-03-29T10:31:54.795Z,8.80
2023-03-29T10:34:26.149Z,8.50
2023-03-29T10:36:56.099Z,8.30
2023-03-29T10:39:25.591Z,8.30
2023-03-29T10:41:53.307Z,7.72
2023-03-29T10:44:27.691Z,7.60
2023-03-29T10:46:56.318Z,6.55
2023-03-29T10:49:25.772Z,6.78
2023-03-29T10:51:53.094Z,8.00
2023-03-29T10:54:22.178Z,7.53
2023-03-29T10:56:52.742Z,7.18
2023-03-29T10:59:37.670Z,6.50
2023-03-29T11:02:24.693Z,6.93
2023-03-29T11:04:58.616Z,6.33
2023-03-29T11:07:28.868Z,6.68
2023-03-29T11:10:11.990Z,6.10
2023-03-29T11:12:41.865Z,6.85
2023-03-29T11:15:15.124Z,5.75
2023-03-29T11:17:53.317Z,6.73
2023-03-29T11:20:31.558Z,6.93
2023-03-29T11:23:07.748Z,6.50
2023-03-29T11:25:41.008Z,6.72
2023-03-29T11:28:12.537Z,7.93
2023-03-29T11:30:42.553Z,7.80
2023-03-29T11:33:16.874Z,6.65
2023-03-29T11:35:52.698Z,6.45
2023-03-29T11:38:23.827Z,7.32
2023-03-29T11:40:55.520Z,6.03
2023-03-29T11:43:26.445Z,6.57
2023-03-29T11:45:55.459Z,5.05
2023-03-29T11:48:29.514Z,5.88
2023-03-29T11:50:59.052Z,5.78
2023-03-29T11:53:29.216Z,5.97
2023-03-29T11:56:00.047Z,6.43
2023-03-29T11:58:47.077Z,7.05
2023-03-29T12:01:16.683Z,5.97
2023-03-29T12:04:24.223Z,5.50
2023-03-29T12:06:58.076Z,7.18
2023-03-29T12:09:29.127Z,5.57
2023-03-29T12:12:00.096Z,6.13
2023-03-29T12:14:29.627Z,6.10
2023-03-29T12:16:58.444Z,5.90
2023-03-29T12:19:29.103Z,5.57
2023-03-29T12:21:58.260Z,5.90
2023-03-29T12:24:27.008Z,5.13
2023-03-29T12:27:10.745Z,6.70
2023-03-29T12:29:44.610Z,5.88
2023-03-29T12:32:20.073Z,18.05
2023-03-29T12:34:54.923Z,9.27
2023-03-29T12:37:32.257Z,5.30
2023-03-29T12:40:10.838Z,4.93
2023-03-29T12:42:44.660Z,4.43
2023-03-29T12:45:15.142Z,5.18
2023-03-29T12:47:45.208Z,5.33
2023-03-29T12:50:17.519Z,6.18
2023-03-29T12:52:48.012Z,5.80
2023-03-29T12:55:21.390Z,5.25
2023-03-29T12:57:57.732Z,10.15
2023-03-29T13:00:27.568Z,7.50
2023-03-29T13:03:03.406Z,6.90
2023-03-29T13:05:33.107Z,5.28
2023-03-29T13:08:10.770Z,5.93
2023-03-29T13:10:39.693Z,5.07
2023-03-29T13:13:12.282Z,8.70
2023-03-29T13:15:39.711Z,5.32
2023-03-29T13:18:12.623Z,6.43
2023-03-29T13:20:45.836Z,6.75
2023-03-29T13:23:23.176Z,7.00
2023-03-29T13:25:59.102Z,8.00
2023-03-29T13:28:30.154Z,10.07
2023-03-29T13:30:59.115Z,8.40
2023-03-29T13:33:44.620Z,13.15
2023-03-29T13:36:16.765Z,10.88
2023-03-29T13:38:46.545Z,8.23
2023-03-29T13:41:30.782Z,7.95
2023-03-29T13:43:59.888Z,9.25
2023-03-29T13:46:37.701Z,8.85
2023-03-29T13:49:10.721Z,8.55
2023-03-29T13:51:39.512Z,7.80
2023-03-29T13:54:13.941Z,7.80
2023-03-29T13:56:51.198Z,8.48
2023-03-29T13:59:20.138Z,9.82
2023-03-29T14:01:50.688Z,7.68
2023-03-29T14:04:21.717Z,9.33
2023-03-29T14:06:51.954Z,7.43
2023-03-29T14:09:22.192Z,10.35
2023-03-29T14:11:49.685Z,8.07
2023-03-29T14:14:18.422Z,8.48
2023-03-29T14:16:45.476Z,10.10
2023-03-29T14:19:14.535Z,11.52
2023-03-29T14:21:42.798Z,11.43
2023-03-29T14:24:12.655Z,13.20
2023-03-29T14:26:43.895Z,12.20
2023-03-29T14:29:12.027Z,10.23
2023-03-29T14:31:41.905Z,11.60
2023-03-29T14:34:12.314Z,10.50
2023-03-29T14:36:39.692Z,9.57
2023-03-29T14:39:10.834Z,9.00
2023-03-29T14:41:38.900Z,8.03
2023-03-29T14:44:07.883Z,10.52
2023-03-29T14:46:35.259Z,8.63
2023-03-29T14:49:02.582Z,8.68
2023-03-29T14:51:34.482Z,7.25
2023-03-29T14:54:03.391Z,8.20
2023-03-29T14:56:32.605Z,11.00
2023-03-29T14:59:01.726Z,9.35
2023-03-29T15:01:31.471Z,8.75
2023-03-29T15:04:03.186Z,9.57
2023-03-29T15:06:30.779Z,8.10
2023-03-29T15:09:05.261Z,8.65
2023-03-29T15:11:34.481Z,8.38
2023-03-29T15:14:02.967Z,6.82
2023-03-29T15:16:33.039Z,8.32
2023-03-29T15:19:01.618Z,9.20
2023-03-29T15:21:31.169Z,42.70
2023-03-29T15:23:59.730Z,47.67
2023-03-29T15:26:31.323Z,43.60
2023-03-29T15:29:03.195Z,26.77
2023-03-29T15:31:35.136Z,17.23
2023-03-29T15:34:03.198Z,25.23
2023-03-29T15:36:31.601Z,17.98
2023-03-29T15:38:59.007Z,25.27
2023-03-29T15:41:27.282Z,30.75
2023-03-29T15:43:54.760Z,20.53
2023-03-29T15:46:22.271Z,32.15
2023-03-29T15:48:50.892Z,31.33
2023-03-29T15:51:17.903Z,31.55
2023-03-29T15:53:44.904Z,24.80
2023-03-29T15:56:15.878Z,14.83
2023-03-29T15:58:43.392Z,13.23
2023-03-29T16:01:13.907Z,15.23
2023-03-29T16:03:41.759Z,16.48
2023-03-29T16:06:12.122Z,9.80
2023-03-29T16:08:39.296Z,12.70
2023-03-29T16:11:07.113Z,11.63
2023-03-29T16:13:34.098Z,11.20
2023-03-29T16:16:01.517Z,14.52
2023-03-29T16:18:28.952Z,10.32
2023-03-29T16:20:56.940Z,10.57
2023-03-29T16:23:25.405Z,13.18
2023-03-29T16:25:52.485Z,17.13
2023-03-29T16:28:19.904Z,20.70
2023-03-29T16:30:46.940Z,19.63
2023-03-29T16:33:14.417Z,20.17
2023-03-29T16:35:50.038Z,15.95
2023-03-29T16:38:17.049Z,15.95
2023-03-29T16:40:45.428Z,18.52
2023-03-29T16:43:14.221Z,21.23
2023-03-29T16:45:41.319Z,14.43
2023-03-29T16:48:10.180Z,15.70
2023-03-29T16:50:37.783Z,15.23
2023-03-29T16:53:05.205Z,15.32
2023-03-29T16:55:33.620Z,14.52
2023-03-29T16:58:02.872Z,20.37
2023-03-29T17:00:29.910Z,21.77
2023-03-29T17:02:57.825Z,21.10
2023-03-29T17:05:28.367Z,20.90
2023-03-29T17:07:56.271Z,21.58
2023-03-29T17:10:23.584Z,24.77
2023-03-29T17:12:50.812Z,29.83
2023-03-29T17:15:19.225Z,33.03
2023-03-29T17:17:46.681Z,34.30
2023-03-29T17:20:14.130Z,30.10
2023-03-29T17:22:41.886Z,33.60
2023-03-29T17:25:10.033Z,16.35
2023-03-29T17:27:40.471Z,10.77
2023-03-29T17:30:08.466Z,12.35
2023-03-29T17:32:37.442Z,13.57
2023-03-29T17:35:05.150Z,13.30
2023-03-29T17:37:32.210Z,14.20
2023-03-29T17:39:59.290Z,17.20
2023-03-29T17:42:28.613Z,15.48
2023-03-29T17:44:55.861Z,18.60
2023-03-29T17:47:22.790Z,18.80
2023-03-29T17:49:51.270Z,18.65
2023-03-29T17:52:18.244Z,23.38
2023-03-29T17:54:45.696Z,24.42
2023-03-29T17:57:12.739Z,24.88
2023-03-29T17:59:41.261Z,23.30
2023-03-29T18:02:14.238Z,22.15
2023-03-29T18:04:41.419Z,21.63
2023-03-29T18:07:09.839Z,18.80
2023-03-29T18:09:37.234Z,19.48
2023-03-29T18:12:04.934Z,19.57
2023-03-29T18:14:31.863Z,19.73
2023-03-29T18:16:59.131Z,18.65
2023-03-29T18:19:26.713Z,18.35
2023-03-29T18:21:54.032Z,20.58
2023-03-29T18:24:23.217Z,25.40
2023-03-29T18:26:51.375Z,22.60
2023-03-29T18:29:20.161Z,30.77
2023-03-29T18:31:47.611Z,35.67
2023-03-29T18:34:14.950Z,31.90
2023-03-29T18:36:42.416Z,38.00
2023-03-29T18:39:09.826Z,35.20
2023-03-29T18:41:38.792Z,38.95
2023-03-29T18:44:07.838Z,32.40
2023-03-29T18:46:35.721Z,37.20
2023-03-29T18:49:04.977Z,48.93
2023-03-29T18:51:33.033Z,53.20
2023-03-29T18:54:00.872Z,45.65
2023-03-29T18:56:29.135Z,39.85
2023-03-29T18:58:58.144Z,31.70
2023-03-29T19:01:25.979Z,34.30
2023-03-29T19:03:53.282Z,31.38
2023-03-29T19:06:20.829Z,30.65
2023-03-29T19:08:48.173Z,34.63
2023-03-29T19:11:15.451Z,28.00
2023-03-29T19:13:43.180Z,26.67
2023-03-29T19:16:15.998Z,25.15
2023-03-29T19:18:43.817Z,25.02
2023-03-29T19:21:12.342Z,24.05
2023-03-29T19:23:41.061Z,24.33
2023-03-29T19:26:09.639Z,21.73
2023-03-29T19:28:36.689Z,21.20
2023-03-29T19:31:04.921Z,22.95
2023-03-29T19:33:34.389Z,20.83
2023-03-29T19:36:01.664Z,22.20
2023-03-29T19:38:29.226Z,21.27
2023-03-29T19:40:57.557Z,22.60
2023-03-29T19:43:25.176Z,25.27
2023-03-29T19:45:52.660Z,21.30
2023-03-29T19:48:23.809Z,23.98
2023-03-29T19:50:53.249Z,21.23
2023-03-29T19:53:21.483Z,26.15
2023-03-29T19:55:50.018Z,24.95
2023-03-29T19:58:17.383Z,40.47
2023-03-29T20:00:44.762Z,35.97
2023-03-29T20:03:14.327Z,35.10
2023-03-29T20:05:42.157Z,28.92
2023-03-29T20:08:11.183Z,30.25
2023-03-29T20:10:38.468Z,41.03
2023-03-29T20:13:06.982Z,37.92
2023-03-29T20:15:34.922Z,38.10
2023-03-29T20:18:02.592Z,27.17
2023-03-29T20:20:30.144Z,25.02
2023-03-29T20:23:04.535Z,24.88
2023-03-29T20:25:34.633Z,26.80
2023-03-29T20:28:01.765Z,24.47
2023-03-29T20:30:29.407Z,24.13
2023-03-29T20:32:56.551Z,19.23
2023-03-29T20:35:23.557Z,18.45
2023-03-29T20:37:52.128Z,20.17
2023-03-29T20:40:20.951Z,18.13
2023-03-29T20:42:49.457Z,17.98
2023-03-29T20:45:19.866Z,17.10
2023-03-29T20:47:50.505Z,17.17
2023-03-29T20:50:19.025Z,21.95
2023-03-29T20:52:46.527Z,18.90
2023-03-29T20:55:14.076Z,29.20
2023-03-29T20:57:42.335Z,27.45
2023-03-29T21:00:12.218Z,23.27
2023-03-29T21:02:39.598Z,19.60
2023-03-29T21:05:07.006Z,17.43
2023-03-29T21:07:34.897Z,17.27
2023-03-29T21:10:02.844Z,16.85
2023-03-29T21:12:29.963Z,13.57
2023-03-29T21:15:00.378Z,13.32
2023-03-29T21:17:28.806Z,17.23
2023-03-29T21:19:55.802Z,14.50
2023-03-29T21:22:24.711Z,16.40
2023-03-29T21:24:51.804Z,20.17
2023-03-29T21:27:19.110Z,21.65
2023-03-29T21:29:46.278Z,20.23
2023-03-29T21:32:13.294Z,21.80
2023-03-29T21:34:41.789Z,20.30
2023-03-29T21:37:08.830Z,20.50
2023-03-29T21:39:35.923Z,16.40
2023-03-29T21:42:03.398Z,16.07
2023-03-29T21:44:32.576Z,15.07
2023-03-29T21:47:01.760Z,15.93
2023-03-29T21:49:28.810Z,18.95
2023-03-29T21:51:57.242Z,20.42
2023-03-29T21:54:24.252Z,14.87
2023-03-29T21:56:51.249Z,14.68
2023-03-29T21:59:18.295Z,14.20
2023-03-29T22:01:45.680Z,15.43
2023-03-29T22:04:19.863Z,14.73
2023-03-29T22:06:52.890Z,13.70
2023-03-29T22:09:21.392Z,14.88
2023-03-29T22:11:48.727Z,13.32
2023-03-29T22:14:15.709Z,14.20
2023-03-29T22:16:45.743Z,13.90
2023-03-29T22:19:12.825Z,13.87
2023-03-29T22:21:39.933Z,12.40
2023-03-29T22:24:07.578Z,12.80
2023-03-29T22:26:36.077Z,14.15
2023-03-29T22:29:03.209Z,13.85
2023-03-29T22:31:30.444Z,12.90
2023-03-29T22:33:58.631Z,12.00
2023-03-29T22:36:26.697Z,14.15
2023-03-29T22:38:54.293Z,14.73
2023-03-29T22:41:26.280Z,11.80
2023-03-29T22:43:57.605Z,10.03
2023-03-29T22:46:24.706Z,10.77
2023-03-29T22:48:53.110Z,11.35
2023-03-29T22:51:21.101Z,11.02
2023-03-29T22:53:48.138Z,12.00
2023-03-29T22:56:15.591Z,12.83
2023-03-29T22:58:42.680Z,12.80
2023-03-29T23:01:11.522Z,12.45
2023-03-29T23:03:38.528Z,12.77
2023-03-29T23:06:06.338Z,13.55
2023-03-29T23:08:33.868Z,13.63
2023-03-29T23:11:01.966Z,13.93
2023-03-29T23:13:29.616Z,12.70
2023-03-29T23:15:58.218Z,10.90
2023-03-29T23:18:28.500Z,12.32
2023-03-29T23:20:57.059Z,10.33
2023-03-29T23:23:24.821Z,10.95
2023-03-29T23:25:52.819Z,12.15
2023-03-29T23:28:21.882Z,11.00
2023-03-29T23:30:54.351Z,10.02
2023-03-29T23:33:21.975Z,11.37
2023-03-29T23:35:50.729Z,10.23
2023-03-29T23:38:17.696Z,10.75
2023-03-29T23:40:44.679Z,12.80
2023-03-29T23:43:11.773Z,11.15
2023-03-29T23:45:39.682Z,9.63
2023-03-29T23:48:07.766Z,10.77
2023-03-29T23:50:34.927Z,10.98
2023-03-29T23:53:03.562Z,11.73
2023-03-29T23:55:32.087Z,9.60
2023-03-29T23:57:59.894Z,10.23
